This is the latest recevied weather packets stored in our database for station/object K6CED. If no packets are shown the sender has not sent any weather packets the latest 10 day(s).
| Time | Temp. | Humidity | Pressure | Rain* | Wind** | Luminosity | Snow |
|---|---|---|---|---|---|---|---|
| 1788484796 | 22.78° C | 61% | 1014.6 hPa | 0 mm | - | 47 W/m² | - |
| 1788484491 | 23.89° C | 60% | 1014.6 hPa | 0 mm | - | 56 W/m² | - |
| 1788484186 | 23.33° C | 60% | 1014.5 hPa | 0 mm | - | 61 W/m² | - |
| 1788483883 | 23.89° C | 59% | 1014.3 hPa | 0 mm | - | 71 W/m² | - |
| 1788483578 | 23.89° C | 59% | 1014.5 hPa | 0 mm | - | 85 W/m² | - |
| 1788483273 | 23.89° C | 57% | 1014.3 hPa | 0 mm | - | 98 W/m² | - |
| 1788482968 | 23.89° C | 58% | 1014.3 hPa | 0 mm | - | 105 W/m² | - |
| 1788482675 | 23.89° C | 58% | 1014.4 hPa | 0 mm | - | 109 W/m² | - |
| 1788482358 | 24.44° C | 57% | 1014.3 hPa | 0 mm | - | 131 W/m² | - |
| 1788482049 | 24.44° C | 54% | 1014.3 hPa | 0 mm | - | 150 W/m² | - |
| 1788481749 | 25° C | 53% | 1014.3 hPa | 0 mm | - | 165 W/m² | - |
| 1788481446 | 25° C | 54% | 1014.5 hPa | 0 mm | - | 183 W/m² | - |
| 1788481144 | 24.44° C | 53% | 1014.2 hPa | 0 mm | - | 194 W/m² | - |
| 1788480841 | 25.56° C | 47% | 1014.2 hPa | 0 mm | - | 211 W/m² | - |
| 1788480541 | 25° C | 50% | 1014.4 hPa | 0 mm | - | 240 W/m² | - |
| 1788480240 | 25.56° C | 49% | 1014.3 hPa | 0 mm | - | 265 W/m² | - |
| 1788479935 | 26.11° C | 48% | 1014.3 hPa | 0 mm | - | 285 W/m² | - |
| 1788479631 | 26.11° C | 50% | 1014.2 hPa | 0 mm | - | 305 W/m² | - |
| 1788479330 | 26.11° C | 50% | 1014.1 hPa | 0 mm | - | 318 W/m² | - |
| 1788479026 | 25.56° C | 52% | 1014.1 hPa | 0 mm | - | 327 W/m² | - |
| 1788478722 | 26.11° C | 50% | 1014.4 hPa | 0 mm | - | 332 W/m² | - |
| 1788478419 | 26.11° C | 48% | 1014.4 hPa | 0 mm | - | 335 W/m² | - |
| 1788478117 | 26.11° C | 47% | 1014.2 hPa | 0 mm | - | 351 W/m² | - |
| 1788477814 | 26.11° C | 46% | 1014.5 hPa | 0 mm | - | 374 W/m² | - |
| 1788477513 | 26.67° C | 43% | 1014.6 hPa | 0 mm | - | 390 W/m² | - |
* Rain latest hour (hover to see other rain measurements)
** Current wind speed in m/s (hover to see current wind gust speed)